sensor_id;sensor_type;location;lat;lon;timestamp;temperature;humidity
15413;DHT22;7805;49.554;7.632;2022-11-06T00:03:32;7.60;99.90
15413;DHT22;7805;49.554;7.632;2022-11-06T00:05:58;7.60;99.90
15413;DHT22;7805;49.554;7.632;2022-11-06T00:08:42;7.50;99.90
15413;DHT22;7805;49.554;7.632;2022-11-06T00:11:13;7.40;99.90
15413;DHT22;7805;49.554;7.632;2022-11-06T00:13:39;7.40;99.90
15413;DHT22;7805;49.554;7.632;2022-11-06T00:16:07;7.40;99.90
15413;DHT22;7805;49.554;7.632;2022-11-06T00:18:33;7.30;99.90
15413;DHT22;7805;49.554;7.632;2022-11-06T00:21:11;7.30;99.90
15413;DHT22;7805;49.554;7.632;2022-11-06T00:23:37;7.20;99.90
15413;DHT22;7805;49.554;7.632;2022-11-06T00:26:08;7.10;99.90
15413;DHT22;7805;49.554;7.632;2022-11-06T00:28:34;7.00;99.90
15413;DHT22;7805;49.554;7.632;2022-11-06T00:31:05;7.00;99.90
15413;DHT22;7805;49.554;7.632;2022-11-06T00:33:31;7.00;99.90
15413;DHT22;7805;49.554;7.632;2022-11-06T00:35:57;7.00;99.90
15413;DHT22;7805;49.554;7.632;2022-11-06T00:38:23;6.90;99.90
15413;DHT22;7805;49.554;7.632;2022-11-06T00:40:48;7.00;99.90
15413;DHT22;7805;49.554;7.632;2022-11-06T00:43:14;6.90;99.90
15413;DHT22;7805;49.554;7.632;2022-11-06T00:45:39;6.90;99.90
15413;DHT22;7805;49.554;7.632;2022-11-06T00:48:05;6.80;99.90
15413;DHT22;7805;49.554;7.632;2022-11-06T00:50:31;6.60;99.90
15413;DHT22;7805;49.554;7.632;2022-11-06T00:52:57;6.50;99.90
15413;DHT22;7805;49.554;7.632;2022-11-06T00:55:22;6.50;99.90
15413;DHT22;7805;49.554;7.632;2022-11-06T00:57:48;6.50;99.90
15413;DHT22;7805;49.554;7.632;2022-11-06T01:00:14;6.50;99.90
15413;DHT22;7805;49.554;7.632;2022-11-06T01:02:43;6.50;99.90
15413;DHT22;7805;49.554;7.632;2022-11-06T01:05:09;6.50;99.90
15413;DHT22;7805;49.554;7.632;2022-11-06T01:07:35;6.50;99.90
15413;DHT22;7805;49.554;7.632;2022-11-06T01:10:01;6.50;99.90
15413;DHT22;7805;49.554;7.632;2022-11-06T01:12:26;6.40;99.90
15413;DHT22;7805;49.554;7.632;2022-11-06T01:14:52;6.20;99.90
15413;DHT22;7805;49.554;7.632;2022-11-06T01:17:17;6.20;99.90
15413;DHT22;7805;49.554;7.632;2022-11-06T01:19:43;6.20;99.90
15413;DHT22;7805;49.554;7.632;2022-11-06T01:22:08;6.20;99.90
15413;DHT22;7805;49.554;7.632;2022-11-06T01:24:34;6.20;99.90
15413;DHT22;7805;49.554;7.632;2022-11-06T01:27:00;6.20;99.90
15413;DHT22;7805;49.554;7.632;2022-11-06T01:29:25;6.30;99.90
15413;DHT22;7805;49.554;7.632;2022-11-06T01:31:51;6.30;99.90
15413;DHT22;7805;49.554;7.632;2022-11-06T01:34:18;6.30;99.90
15413;DHT22;7805;49.554;7.632;2022-11-06T01:36:44;6.30;99.90
15413;DHT22;7805;49.554;7.632;2022-11-06T01:39:12;6.30;99.90
15413;DHT22;7805;49.554;7.632;2022-11-06T01:41:42;6.30;99.90
15413;DHT22;7805;49.554;7.632;2022-11-06T01:46:58;6.20;99.90
15413;DHT22;7805;49.554;7.632;2022-11-06T01:49:25;6.10;99.90
15413;DHT22;7805;49.554;7.632;2022-11-06T01:52:05;6.10;99.90
15413;DHT22;7805;49.554;7.632;2022-11-06T01:54:33;6.10;99.90
15413;DHT22;7805;49.554;7.632;2022-11-06T01:57:00;6.10;99.90
15413;DHT22;7805;49.554;7.632;2022-11-06T01:59:29;6.00;99.90
15413;DHT22;7805;49.554;7.632;2022-11-06T02:01:55;5.90;99.90
15413;DHT22;7805;49.554;7.632;2022-11-06T02:04:40;5.80;99.90
15413;DHT22;7805;49.554;7.632;2022-11-06T02:07:07;5.80;99.90
15413;DHT22;7805;49.554;7.632;2022-11-06T02:09:33;5.70;99.90
15413;DHT22;7805;49.554;7.632;2022-11-06T02:15:02;5.80;99.90
15413;DHT22;7805;49.554;7.632;2022-11-06T02:20:32;5.80;99.90
15413;DHT22;7805;49.554;7.632;2022-11-06T02:25:59;5.80;99.90
15413;DHT22;7805;49.554;7.632;2022-11-06T02:28:49;5.80;99.90
15413;DHT22;7805;49.554;7.632;2022-11-06T02:31:23;5.80;99.90
15413;DHT22;7805;49.554;7.632;2022-11-06T02:33:54;5.80;99.90
15413;DHT22;7805;49.554;7.632;2022-11-06T02:36:28;5.70;99.90
15413;DHT22;7805;49.554;7.632;2022-11-06T02:38:58;5.70;99.90
15413;DHT22;7805;49.554;7.632;2022-11-06T02:41:33;5.60;99.90
15413;DHT22;7805;49.554;7.632;2022-11-06T02:44:02;5.50;99.90
15413;DHT22;7805;49.554;7.632;2022-11-06T02:46:54;5.50;99.90
15413;DHT22;7805;49.554;7.632;2022-11-06T02:49:38;5.60;99.90
15413;DHT22;7805;49.554;7.632;2022-11-06T02:52:20;5.60;99.90
15413;DHT22;7805;49.554;7.632;2022-11-06T02:54:55;5.60;99.90
15413;DHT22;7805;49.554;7.632;2022-11-06T02:57:23;5.60;99.90
15413;DHT22;7805;49.554;7.632;2022-11-06T03:02:45;5.50;99.90
15413;DHT22;7805;49.554;7.632;2022-11-06T03:05:21;5.50;99.90
15413;DHT22;7805;49.554;7.632;2022-11-06T03:08:12;5.40;99.90
15413;DHT22;7805;49.554;7.632;2022-11-06T03:16:58;5.40;99.90
15413;DHT22;7805;49.554;7.632;2022-11-06T03:22:00;5.30;99.90
15413;DHT22;7805;49.554;7.632;2022-11-06T03:24:55;5.30;99.90
15413;DHT22;7805;49.554;7.632;2022-11-06T03:27:28;5.30;99.90
15413;DHT22;7805;49.554;7.632;2022-11-06T03:30:06;5.30;99.90
15413;DHT22;7805;49.554;7.632;2022-11-06T03:37:57;5.10;99.90
15413;DHT22;7805;49.554;7.632;2022-11-06T03:40:27;5.10;99.90
15413;DHT22;7805;49.554;7.632;2022-11-06T03:42:58;5.20;99.90
15413;DHT22;7805;49.554;7.632;2022-11-06T03:45:26;5.20;99.90
15413;DHT22;7805;49.554;7.632;2022-11-06T03:48:03;5.20;99.90
15413;DHT22;7805;49.554;7.632;2022-11-06T03:50:44;5.20;99.90
15413;DHT22;7805;49.554;7.632;2022-11-06T03:56:12;5.20;99.90
15413;DHT22;7805;49.554;7.632;2022-11-06T03:58:43;5.10;99.90
15413;DHT22;7805;49.554;7.632;2022-11-06T04:01:11;5.10;99.90
15413;DHT22;7805;49.554;7.632;2022-11-06T04:03:52;5.10;99.90
15413;DHT22;7805;49.554;7.632;2022-11-06T04:06:43;5.10;99.90
15413;DHT22;7805;49.554;7.632;2022-11-06T04:09:13;5.10;99.90
15413;DHT22;7805;49.554;7.632;2022-11-06T04:12:00;4.90;99.90
15413;DHT22;7805;49.554;7.632;2022-11-06T04:14:50;4.70;99.90
15413;DHT22;7805;49.554;7.632;2022-11-06T04:17:16;4.60;99.90
15413;DHT22;7805;49.554;7.632;2022-11-06T04:19:50;4.50;99.90
15413;DHT22;7805;49.554;7.632;2022-11-06T04:28:35;4.50;99.90
15413;DHT22;7805;49.554;7.632;2022-11-06T04:33:49;4.50;99.90
15413;DHT22;7805;49.554;7.632;2022-11-06T04:36:53;4.50;99.90
15413;DHT22;7805;49.554;7.632;2022-11-06T04:39:32;4.60;99.90
15413;DHT22;7805;49.554;7.632;2022-11-06T04:42:22;4.50;99.90
15413;DHT22;7805;49.554;7.632;2022-11-06T04:47:52;4.50;99.90
15413;DHT22;7805;49.554;7.632;2022-11-06T04:50:20;4.60;99.90
15413;DHT22;7805;49.554;7.632;2022-11-06T04:52:47;4.80;99.90
15413;DHT22;7805;49.554;7.632;2022-11-06T04:55:13;4.60;99.90
15413;DHT22;7805;49.554;7.632;2022-11-06T04:57:39;4.60;99.90
15413;DHT22;7805;49.554;7.632;2022-11-06T05:00:05;4.60;99.90
15413;DHT22;7805;49.554;7.632;2022-11-06T05:02:31;4.60;99.90
15413;DHT22;7805;49.554;7.632;2022-11-06T05:04:56;4.60;99.90
15413;DHT22;7805;49.554;7.632;2022-11-06T05:07:22;4.50;99.90
15413;DHT22;7805;49.554;7.632;2022-11-06T05:09:47;4.50;99.90
15413;DHT22;7805;49.554;7.632;2022-11-06T05:12:13;4.50;99.90
15413;DHT22;7805;49.554;7.632;2022-11-06T05:14:38;6.00;99.90
15413;DHT22;7805;49.554;7.632;2022-11-06T05:17:04;4.50;99.90
15413;DHT22;7805;49.554;7.632;2022-11-06T05:19:30;4.50;99.90
15413;DHT22;7805;49.554;7.632;2022-11-06T05:21:55;4.60;99.90
15413;DHT22;7805;49.554;7.632;2022-11-06T05:24:39;4.60;99.90
15413;DHT22;7805;49.554;7.632;2022-11-06T05:27:05;4.60;99.90
15413;DHT22;7805;49.554;7.632;2022-11-06T05:29:30;4.60;99.90
15413;DHT22;7805;49.554;7.632;2022-11-06T05:31:56;4.60;99.90
15413;DHT22;7805;49.554;7.632;2022-11-06T05:34:21;4.50;99.90
15413;DHT22;7805;49.554;7.632;2022-11-06T05:36:47;4.50;99.90
15413;DHT22;7805;49.554;7.632;2022-11-06T05:39:13;4.50;99.90
15413;DHT22;7805;49.554;7.632;2022-11-06T05:41:38;4.40;99.90
15413;DHT22;7805;49.554;7.632;2022-11-06T05:44:04;4.40;99.90
15413;DHT22;7805;49.554;7.632;2022-11-06T05:46:29;4.30;99.90
15413;DHT22;7805;49.554;7.632;2022-11-06T05:48:56;4.40;99.90
15413;DHT22;7805;49.554;7.632;2022-11-06T05:51:22;4.40;99.90
15413;DHT22;7805;49.554;7.632;2022-11-06T05:53:47;4.30;99.90
15413;DHT22;7805;49.554;7.632;2022-11-06T05:56:13;4.30;99.90
15413;DHT22;7805;49.554;7.632;2022-11-06T05:58:38;4.40;99.90
15413;DHT22;7805;49.554;7.632;2022-11-06T06:01:04;4.40;99.90
15413;DHT22;7805;49.554;7.632;2022-11-06T06:03:30;4.40;99.90
15413;DHT22;7805;49.554;7.632;2022-11-06T06:05:56;4.40;99.90
15413;DHT22;7805;49.554;7.632;2022-11-06T06:08:21;4.40;99.90
15413;DHT22;7805;49.554;7.632;2022-11-06T06:10:47;4.40;99.90
15413;DHT22;7805;49.554;7.632;2022-11-06T06:13:13;4.40;99.90
15413;DHT22;7805;49.554;7.632;2022-11-06T06:15:40;4.40;99.90
15413;DHT22;7805;49.554;7.632;2022-11-06T06:18:07;4.40;99.90
15413;DHT22;7805;49.554;7.632;2022-11-06T06:20:34;4.30;99.90
15413;DHT22;7805;49.554;7.632;2022-11-06T06:22:59;4.30;99.90
15413;DHT22;7805;49.554;7.632;2022-11-06T06:25:26;4.30;99.90
15413;DHT22;7805;49.554;7.632;2022-11-06T06:27:52;4.30;99.90
15413;DHT22;7805;49.554;7.632;2022-11-06T06:30:19;4.30;99.90
15413;DHT22;7805;49.554;7.632;2022-11-06T06:32:45;4.30;99.90
15413;DHT22;7805;49.554;7.632;2022-11-06T06:35:10;4.30;99.90
15413;DHT22;7805;49.554;7.632;2022-11-06T06:37:36;4.40;99.90
15413;DHT22;7805;49.554;7.632;2022-11-06T06:40:03;4.40;99.90
15413;DHT22;7805;49.554;7.632;2022-11-06T06:42:28;4.40;99.90
15413;DHT22;7805;49.554;7.632;2022-11-06T06:44:54;4.40;99.90
15413;DHT22;7805;49.554;7.632;2022-11-06T06:47:20;4.50;99.90
15413;DHT22;7805;49.554;7.632;2022-11-06T06:49:45;4.50;99.90
15413;DHT22;7805;49.554;7.632;2022-11-06T06:52:11;4.50;99.90
15413;DHT22;7805;49.554;7.632;2022-11-06T06:54:37;4.50;99.90
15413;DHT22;7805;49.554;7.632;2022-11-06T06:57:03;4.40;99.90
15413;DHT22;7805;49.554;7.632;2022-11-06T06:59:29;4.30;99.90
15413;DHT22;7805;49.554;7.632;2022-11-06T07:01:55;4.10;99.90
15413;DHT22;7805;49.554;7.632;2022-11-06T07:04:20;4.20;99.90
15413;DHT22;7805;49.554;7.632;2022-11-06T07:06:46;4.20;99.90
15413;DHT22;7805;49.554;7.632;2022-11-06T07:09:12;4.20;99.90
15413;DHT22;7805;49.554;7.632;2022-11-06T07:11:37;4.30;99.90
15413;DHT22;7805;49.554;7.632;2022-11-06T07:14:03;4.40;99.90
15413;DHT22;7805;49.554;7.632;2022-11-06T07:16:29;4.50;99.90
15413;DHT22;7805;49.554;7.632;2022-11-06T07:18:55;4.50;99.90
15413;DHT22;7805;49.554;7.632;2022-11-06T07:21:20;4.60;99.90
15413;DHT22;7805;49.554;7.632;2022-11-06T07:23:46;4.60;99.90
15413;DHT22;7805;49.554;7.632;2022-11-06T07:26:12;4.60;99.90
15413;DHT22;7805;49.554;7.632;2022-11-06T07:28:38;4.60;99.90
15413;DHT22;7805;49.554;7.632;2022-11-06T07:31:05;4.60;99.90
15413;DHT22;7805;49.554;7.632;2022-11-06T07:33:31;4.60;99.90
15413;DHT22;7805;49.554;7.632;2022-11-06T07:36:05;4.70;99.90
15413;DHT22;7805;49.554;7.632;2022-11-06T07:38:32;4.70;99.90
15413;DHT22;7805;49.554;7.632;2022-11-06T07:41:03;4.70;99.90
15413;DHT22;7805;49.554;7.632;2022-11-06T07:43:29;4.80;99.90
15413;DHT22;7805;49.554;7.632;2022-11-06T07:45:58;4.80;99.90
15413;DHT22;7805;49.554;7.632;2022-11-06T07:48:28;4.80;99.90
15413;DHT22;7805;49.554;7.632;2022-11-06T07:50:53;4.80;99.90
15413;DHT22;7805;49.554;7.632;2022-11-06T07:53:19;5.10;99.90
15413;DHT22;7805;49.554;7.632;2022-11-06T07:55:52;5.90;99.90
15413;DHT22;7805;49.554;7.632;2022-11-06T07:58:19;6.80;99.90
15413;DHT22;7805;49.554;7.632;2022-11-06T08:00:51;8.00;99.90
15413;DHT22;7805;49.554;7.632;2022-11-06T08:03:18;9.10;99.90
15413;DHT22;7805;49.554;7.632;2022-11-06T08:05:44;10.00;99.90
15413;DHT22;7805;49.554;7.632;2022-11-06T08:08:10;10.30;99.90
15413;DHT22;7805;49.554;7.632;2022-11-06T08:10:37;10.40;99.90
15413;DHT22;7805;49.554;7.632;2022-11-06T08:13:11;10.80;99.90
15413;DHT22;7805;49.554;7.632;2022-11-06T08:15:37;11.30;99.90
15413;DHT22;7805;49.554;7.632;2022-11-06T08:18:04;11.60;99.90
15413;DHT22;7805;49.554;7.632;2022-11-06T08:20:30;11.60;99.90
15413;DHT22;7805;49.554;7.632;2022-11-06T08:23:04;11.70;99.90
15413;DHT22;7805;49.554;7.632;2022-11-06T08:25:30;11.90;99.90
15413;DHT22;7805;49.554;7.632;2022-11-06T08:27:57;12.10;99.90
15413;DHT22;7805;49.554;7.632;2022-11-06T08:30:24;12.30;99.90
15413;DHT22;7805;49.554;7.632;2022-11-06T08:32:50;12.50;99.90
15413;DHT22;7805;49.554;7.632;2022-11-06T08:35:15;12.70;99.90
15413;DHT22;7805;49.554;7.632;2022-11-06T08:37:41;12.40;99.90
15413;DHT22;7805;49.554;7.632;2022-11-06T08:40:07;12.20;99.90
15413;DHT22;7805;49.554;7.632;2022-11-06T08:42:33;12.20;99.90
15413;DHT22;7805;49.554;7.632;2022-11-06T08:44:58;12.20;99.90
15413;DHT22;7805;49.554;7.632;2022-11-06T08:47:24;12.20;99.90
15413;DHT22;7805;49.554;7.632;2022-11-06T08:49:49;12.60;99.90
15413;DHT22;7805;49.554;7.632;2022-11-06T08:52:15;12.90;99.90
15413;DHT22;7805;49.554;7.632;2022-11-06T08:54:40;13.10;99.90
15413;DHT22;7805;49.554;7.632;2022-11-06T08:57:06;13.20;99.90
15413;DHT22;7805;49.554;7.632;2022-11-06T08:59:32;13.30;99.90
15413;DHT22;7805;49.554;7.632;2022-11-06T09:01:57;13.30;99.90
15413;DHT22;7805;49.554;7.632;2022-11-06T09:04:23;13.00;99.90
15413;DHT22;7805;49.554;7.632;2022-11-06T09:06:49;12.80;99.90
15413;DHT22;7805;49.554;7.632;2022-11-06T09:09:14;12.90;99.90
15413;DHT22;7805;49.554;7.632;2022-11-06T09:11:40;13.20;99.90
15413;DHT22;7805;49.554;7.632;2022-11-06T09:14:05;13.50;99.90
15413;DHT22;7805;49.554;7.632;2022-11-06T09:16:31;13.80;99.90
15413;DHT22;7805;49.554;7.632;2022-11-06T09:18:58;14.00;99.90
15413;DHT22;7805;49.554;7.632;2022-11-06T09:21:24;14.00;99.90
15413;DHT22;7805;49.554;7.632;2022-11-06T09:23:50;14.10;99.90
15413;DHT22;7805;49.554;7.632;2022-11-06T09:26:15;14.10;99.90
15413;DHT22;7805;49.554;7.632;2022-11-06T09:28:41;14.20;99.90
15413;DHT22;7805;49.554;7.632;2022-11-06T09:31:07;14.40;99.90
15413;DHT22;7805;49.554;7.632;2022-11-06T09:33:33;14.60;99.90
15413;DHT22;7805;49.554;7.632;2022-11-06T09:35:59;14.40;99.90
15413;DHT22;7805;49.554;7.632;2022-11-06T09:38:27;14.00;99.90
15413;DHT22;7805;49.554;7.632;2022-11-06T09:41:00;14.00;99.90
15413;DHT22;7805;49.554;7.632;2022-11-06T09:46:30;14.00;99.90
15413;DHT22;7805;49.554;7.632;2022-11-06T09:54:27;15.00;99.90
15413;DHT22;7805;49.554;7.632;2022-11-06T09:57:04;14.90;99.50
15413;DHT22;7805;49.554;7.632;2022-11-06T09:59:35;14.70;99.90
15413;DHT22;7805;49.554;7.632;2022-11-06T10:02:01;14.70;99.90
15413;DHT22;7805;49.554;7.632;2022-11-06T10:05:23;14.70;99.90
15413;DHT22;7805;49.554;7.632;2022-11-06T10:07:41;15.10;99.90
15413;DHT22;7805;49.554;7.632;2022-11-06T10:10:16;15.20;99.90
15413;DHT22;7805;49.554;7.632;2022-11-06T10:13:01;14.90;99.40
15413;DHT22;7805;49.554;7.632;2022-11-06T10:18:19;15.00;99.30
15413;DHT22;7805;49.554;7.632;2022-11-06T10:20:58;15.00;99.90
15413;DHT22;7805;49.554;7.632;2022-11-06T10:23:43;15.60;99.90
15413;DHT22;7805;49.554;7.632;2022-11-06T10:26:23;16.30;99.90
15413;DHT22;7805;49.554;7.632;2022-11-06T10:32:10;17.20;98.80
15413;DHT22;7805;49.554;7.632;2022-11-06T10:34:45;17.70;98.10
15413;DHT22;7805;49.554;7.632;2022-11-06T10:37:15;18.00;98.10
15413;DHT22;7805;49.554;7.632;2022-11-06T10:39:43;18.00;97.50
15413;DHT22;7805;49.554;7.632;2022-11-06T10:42:17;17.90;97.40
15413;DHT22;7805;49.554;7.632;2022-11-06T10:44:56;18.10;96.70
15413;DHT22;7805;49.554;7.632;2022-11-06T10:47:26;18.20;96.50
15413;DHT22;7805;49.554;7.632;2022-11-06T10:49:59;17.90;96.50
15413;DHT22;7805;49.554;7.632;2022-11-06T10:55:35;17.70;96.00
15413;DHT22;7805;49.554;7.632;2022-11-06T10:58:14;17.70;95.80
15413;DHT22;7805;49.554;7.632;2022-11-06T11:00:41;17.40;96.00
15413;DHT22;7805;49.554;7.632;2022-11-06T11:03:34;17.30;96.10
15413;DHT22;7805;49.554;7.632;2022-11-06T11:06:01;17.00;95.60
15413;DHT22;7805;49.554;7.632;2022-11-06T11:08:48;16.90;95.90
15413;DHT22;7805;49.554;7.632;2022-11-06T11:16:32;16.80;96.00
15413;DHT22;7805;49.554;7.632;2022-11-06T11:21:53;16.80;95.90
15413;DHT22;7805;49.554;7.632;2022-11-06T11:24:19;16.90;96.20
15413;DHT22;7805;49.554;7.632;2022-11-06T11:29:45;16.90;96.00
15413;DHT22;7805;49.554;7.632;2022-11-06T11:32:16;16.70;95.50
15413;DHT22;7805;49.554;7.632;2022-11-06T11:34:46;16.40;95.80
15413;DHT22;7805;49.554;7.632;2022-11-06T11:37:30;16.30;96.10
15413;DHT22;7805;49.554;7.632;2022-11-06T11:40:17;16.00;95.30
15413;DHT22;7805;49.554;7.632;2022-11-06T11:42:42;15.80;95.90
15413;DHT22;7805;49.554;7.632;2022-11-06T11:47:37;15.70;96.80
15413;DHT22;7805;49.554;7.632;2022-11-06T11:52:42;15.60;96.60
15413;DHT22;7805;49.554;7.632;2022-11-06T11:55:15;15.60;97.10
15413;DHT22;7805;49.554;7.632;2022-11-06T11:57:47;15.60;97.00
15413;DHT22;7805;49.554;7.632;2022-11-06T12:00:16;15.50;96.90
15413;DHT22;7805;49.554;7.632;2022-11-06T12:02:46;15.50;97.30
15413;DHT22;7805;49.554;7.632;2022-11-06T12:05:20;15.50;97.30
15413;DHT22;7805;49.554;7.632;2022-11-06T12:07:52;15.30;97.30
15413;DHT22;7805;49.554;7.632;2022-11-06T12:12:59;15.30;97.50
15413;DHT22;7805;49.554;7.632;2022-11-06T12:16:04;15.30;97.60
15413;DHT22;7805;49.554;7.632;2022-11-06T12:18:43;15.10;97.40
15413;DHT22;7805;49.554;7.632;2022-11-06T12:21:42;15.00;97.80
15413;DHT22;7805;49.554;7.632;2022-11-06T12:24:14;15.00;97.90
15413;DHT22;7805;49.554;7.632;2022-11-06T12:29:24;14.80;98.30
15413;DHT22;7805;49.554;7.632;2022-11-06T12:31:57;14.80;98.40
15413;DHT22;7805;49.554;7.632;2022-11-06T12:34:37;14.90;98.60
15413;DHT22;7805;49.554;7.632;2022-11-06T12:37:37;14.90;98.50
15413;DHT22;7805;49.554;7.632;2022-11-06T12:40:27;15.00;98.50
15413;DHT22;7805;49.554;7.632;2022-11-06T12:52:12;15.00;97.80
15413;DHT22;7805;49.554;7.632;2022-11-06T13:00:11;14.60;98.40
15413;DHT22;7805;49.554;7.632;2022-11-06T13:08:27;14.20;98.40
15413;DHT22;7805;49.554;7.632;2022-11-06T13:14:13;14.30;98.40
15413;DHT22;7805;49.554;7.632;2022-11-06T13:22:44;14.30;97.70
15413;DHT22;7805;49.554;7.632;2022-11-06T13:30:27;14.40;97.80
15413;DHT22;7805;49.554;7.632;2022-11-06T13:35:38;14.00;98.00
15413;DHT22;7805;49.554;7.632;2022-11-06T13:38:06;13.80;97.70
15413;DHT22;7805;49.554;7.632;2022-11-06T13:40:36;13.80;97.90
15413;DHT22;7805;49.554;7.632;2022-11-06T13:43:25;13.70;97.90
15413;DHT22;7805;49.554;7.632;2022-11-06T13:51:21;13.80;96.90
15413;DHT22;7805;49.554;7.632;2022-11-06T14:06:56;13.50;98.10
15413;DHT22;7805;49.554;7.632;2022-11-06T14:09:26;13.50;98.30
15413;DHT22;7805;49.554;7.632;2022-11-06T14:12:00;13.50;98.60
15413;DHT22;7805;49.554;7.632;2022-11-06T14:14:28;13.50;98.20
15413;DHT22;7805;49.554;7.632;2022-11-06T14:17:09;13.30;98.00
15413;DHT22;7805;49.554;7.632;2022-11-06T14:19:35;13.30;98.30
15413;DHT22;7805;49.554;7.632;2022-11-06T14:24:39;13.30;98.40
15413;DHT22;7805;49.554;7.632;2022-11-06T14:27:12;13.30;98.30
15413;DHT22;7805;49.554;7.632;2022-11-06T14:32:54;13.20;98.30
15413;DHT22;7805;49.554;7.632;2022-11-06T14:40:37;13.10;98.10
15413;DHT22;7805;49.554;7.632;2022-11-06T14:43:32;13.10;98.40
15413;DHT22;7805;49.554;7.632;2022-11-06T14:46:17;12.80;98.30
15413;DHT22;7805;49.554;7.632;2022-11-06T14:48:54;12.80;98.60
15413;DHT22;7805;49.554;7.632;2022-11-06T14:51:26;12.90;98.90
15413;DHT22;7805;49.554;7.632;2022-11-06T14:53:58;12.90;99.20
15413;DHT22;7805;49.554;7.632;2022-11-06T14:56:27;13.20;99.10
15413;DHT22;7805;49.554;7.632;2022-11-06T14:59:21;12.90;98.80
15413;DHT22;7805;49.554;7.632;2022-11-06T15:01:59;12.90;99.00
15413;DHT22;7805;49.554;7.632;2022-11-06T15:04:33;12.90;99.30
15413;DHT22;7805;49.554;7.632;2022-11-06T15:07:24;12.80;99.40
15413;DHT22;7805;49.554;7.632;2022-11-06T15:09:50;12.80;99.80
15413;DHT22;7805;49.554;7.632;2022-11-06T15:12:15;12.90;99.90
15413;DHT22;7805;49.554;7.632;2022-11-06T15:17:14;12.60;99.70
15413;DHT22;7805;49.554;7.632;2022-11-06T15:20:32;12.50;99.70
15413;DHT22;7805;49.554;7.632;2022-11-06T15:22:48;12.40;99.90
15413;DHT22;7805;49.554;7.632;2022-11-06T15:27:44;12.30;99.80
15413;DHT22;7805;49.554;7.632;2022-11-06T15:30:17;12.30;99.90
15413;DHT22;7805;49.554;7.632;2022-11-06T15:32:44;12.20;99.90
15413;DHT22;7805;49.554;7.632;2022-11-06T15:35:20;12.20;99.90
15413;DHT22;7805;49.554;7.632;2022-11-06T15:38:10;12.10;99.90
15413;DHT22;7805;49.554;7.632;2022-11-06T15:40:38;12.00;99.90
15413;DHT22;7805;49.554;7.632;2022-11-06T15:43:32;11.90;99.90
15413;DHT22;7805;49.554;7.632;2022-11-06T15:48:31;11.80;99.90
15413;DHT22;7805;49.554;7.632;2022-11-06T15:50:57;11.80;99.90
15413;DHT22;7805;49.554;7.632;2022-11-06T15:53:25;11.80;99.90
15413;DHT22;7805;49.554;7.632;2022-11-06T15:56:04;11.80;99.90
15413;DHT22;7805;49.554;7.632;2022-11-06T15:58:36;11.80;99.90
15413;DHT22;7805;49.554;7.632;2022-11-06T16:01:04;12.80;99.90
15413;DHT22;7805;49.554;7.632;2022-11-06T16:03:32;11.80;99.90
15413;DHT22;7805;49.554;7.632;2022-11-06T16:06:07;11.80;99.90
15413;DHT22;7805;49.554;7.632;2022-11-06T16:08:32;11.80;99.90
15413;DHT22;7805;49.554;7.632;2022-11-06T16:10:59;11.80;99.90
15413;DHT22;7805;49.554;7.632;2022-11-06T16:13:25;11.80;99.90
15413;DHT22;7805;49.554;7.632;2022-11-06T16:15:56;11.80;99.90
15413;DHT22;7805;49.554;7.632;2022-11-06T16:18:40;11.70;99.90
15413;DHT22;7805;49.554;7.632;2022-11-06T16:23:51;11.60;99.90
15413;DHT22;7805;49.554;7.632;2022-11-06T16:29:00;11.60;99.90
15413;DHT22;7805;49.554;7.632;2022-11-06T16:31:28;11.60;99.90
15413;DHT22;7805;49.554;7.632;2022-11-06T16:34:04;11.50;99.90
15413;DHT22;7805;49.554;7.632;2022-11-06T16:36:57;11.60;99.90
15413;DHT22;7805;49.554;7.632;2022-11-06T16:41:58;11.40;99.90
15413;DHT22;7805;49.554;7.632;2022-11-06T16:44:42;11.40;99.90
15413;DHT22;7805;49.554;7.632;2022-11-06T16:52:18;11.50;99.90
15413;DHT22;7805;49.554;7.632;2022-11-06T16:54:50;11.50;99.90
15413;DHT22;7805;49.554;7.632;2022-11-06T16:57:21;11.40;99.90
15413;DHT22;7805;49.554;7.632;2022-11-06T17:00:00;11.50;99.90
15413;DHT22;7805;49.554;7.632;2022-11-06T17:02:28;11.40;99.90
15413;DHT22;7805;49.554;7.632;2022-11-06T17:05:20;11.30;99.90
15413;DHT22;7805;49.554;7.632;2022-11-06T17:07:47;11.30;99.90
15413;DHT22;7805;49.554;7.632;2022-11-06T17:10:41;11.20;99.90
15413;DHT22;7805;49.554;7.632;2022-11-06T17:13:26;11.20;99.90
15413;DHT22;7805;49.554;7.632;2022-11-06T17:16:00;11.20;99.90
15413;DHT22;7805;49.554;7.632;2022-11-06T17:18:37;11.20;99.90
15413;DHT22;7805;49.554;7.632;2022-11-06T17:23:36;11.20;99.90
15413;DHT22;7805;49.554;7.632;2022-11-06T17:26:23;11.00;99.90
15413;DHT22;7805;49.554;7.632;2022-11-06T17:28:50;11.00;99.90
15413;DHT22;7805;49.554;7.632;2022-11-06T17:31:19;10.90;99.90
15413;DHT22;7805;49.554;7.632;2022-11-06T17:33:45;11.00;99.90
15413;DHT22;7805;49.554;7.632;2022-11-06T17:36:24;11.00;99.90
15413;DHT22;7805;49.554;7.632;2022-11-06T17:38:51;10.90;99.90
15413;DHT22;7805;49.554;7.632;2022-11-06T17:41:17;10.80;99.90
15413;DHT22;7805;49.554;7.632;2022-11-06T17:46:35;10.90;99.90
15413;DHT22;7805;49.554;7.632;2022-11-06T17:49:02;10.90;99.90
15413;DHT22;7805;49.554;7.632;2022-11-06T17:51:28;10.90;99.90
15413;DHT22;7805;49.554;7.632;2022-11-06T17:54:13;9.70;99.90
15413;DHT22;7805;49.554;7.632;2022-11-06T17:56:40;11.00;99.90
15413;DHT22;7805;49.554;7.632;2022-11-06T17:59:07;11.10;99.90
15413;DHT22;7805;49.554;7.632;2022-11-06T18:01:33;11.00;99.90
15413;DHT22;7805;49.554;7.632;2022-11-06T18:03:58;11.00;99.90
15413;DHT22;7805;49.554;7.632;2022-11-06T18:06:24;11.00;99.90
15413;DHT22;7805;49.554;7.632;2022-11-06T18:08:54;10.90;99.90
15413;DHT22;7805;49.554;7.632;2022-11-06T18:11:21;11.00;99.90
15413;DHT22;7805;49.554;7.632;2022-11-06T18:13:46;11.00;99.90
15413;DHT22;7805;49.554;7.632;2022-11-06T18:16:18;10.90;99.90
15413;DHT22;7805;49.554;7.632;2022-11-06T18:18:43;11.60;99.90
15413;DHT22;7805;49.554;7.632;2022-11-06T18:21:09;10.90;99.90
15413;DHT22;7805;49.554;7.632;2022-11-06T18:23:35;10.80;99.90
15413;DHT22;7805;49.554;7.632;2022-11-06T18:26:01;10.80;99.90
15413;DHT22;7805;49.554;7.632;2022-11-06T18:28:26;10.70;99.90
15413;DHT22;7805;49.554;7.632;2022-11-06T18:30:52;11.80;99.90
15413;DHT22;7805;49.554;7.632;2022-11-06T18:33:18;10.60;99.90
15413;DHT22;7805;49.554;7.632;2022-11-06T18:35:44;10.60;99.90
15413;DHT22;7805;49.554;7.632;2022-11-06T18:38:12;10.50;99.90
15413;DHT22;7805;49.554;7.632;2022-11-06T18:40:39;10.60;99.90
15413;DHT22;7805;49.554;7.632;2022-11-06T18:43:05;10.60;99.90
15413;DHT22;7805;49.554;7.632;2022-11-06T18:45:30;10.60;99.90
15413;DHT22;7805;49.554;7.632;2022-11-06T18:47:56;10.60;99.90
15413;DHT22;7805;49.554;7.632;2022-11-06T18:50:22;10.60;99.90
15413;DHT22;7805;49.554;7.632;2022-11-06T18:52:48;11.50;99.90
15413;DHT22;7805;49.554;7.632;2022-11-06T18:55:13;10.70;99.90
15413;DHT22;7805;49.554;7.632;2022-11-06T18:57:39;12.20;99.90
15413;DHT22;7805;49.554;7.632;2022-11-06T19:00:05;10.60;99.90
15413;DHT22;7805;49.554;7.632;2022-11-06T19:02:31;10.90;99.90
15413;DHT22;7805;49.554;7.632;2022-11-06T19:04:57;10.60;99.90
15413;DHT22;7805;49.554;7.632;2022-11-06T19:07:23;11.30;99.90
15413;DHT22;7805;49.554;7.632;2022-11-06T19:09:49;10.60;99.90
15413;DHT22;7805;49.554;7.632;2022-11-06T19:12:15;11.90;99.90